createdAt,value
2022-12-31T00:00:05.927Z,12.80
2022-12-31T00:02:33.053Z,13.77
2022-12-31T00:04:59.977Z,13.15
2022-12-31T00:07:27.711Z,13.50
2022-12-31T00:09:54.936Z,13.48
2022-12-31T00:12:21.971Z,12.97
2022-12-31T00:14:48.959Z,12.45
2022-12-31T00:17:16.934Z,11.98
2022-12-31T00:19:43.945Z,13.43
2022-12-31T00:22:10.826Z,12.63
2022-12-31T00:24:37.695Z,13.23
2022-12-31T00:27:04.545Z,14.07
2022-12-31T00:30:02.451Z,13.20
2022-12-31T00:32:32.883Z,13.18
2022-12-31T00:34:59.675Z,12.98
2022-12-31T00:37:29.978Z,13.77
2022-12-31T00:39:57.468Z,12.27
2022-12-31T00:42:24.559Z,12.10
2022-12-31T00:44:51.418Z,11.38
2022-12-31T00:47:18.259Z,11.32
2022-12-31T00:49:45.358Z,10.97
2022-12-31T00:52:12.187Z,11.13
2022-12-31T00:54:39.867Z,10.68
2022-12-31T00:57:06.618Z,10.30
2022-12-31T00:59:34.454Z,10.43
2022-12-31T01:02:01.410Z,10.23
2022-12-31T01:04:34.957Z,10.20
2022-12-31T01:07:01.800Z,10.77
2022-12-31T01:09:28.879Z,10.70
2022-12-31T01:11:57.492Z,10.57
2022-12-31T01:14:24.406Z,10.63
2022-12-31T01:16:57.078Z,10.38
2022-12-31T01:19:29.569Z,10.57
2022-12-31T01:21:59.028Z,9.65
2022-12-31T01:24:26.975Z,10.00
2022-12-31T01:26:53.879Z,10.60
2022-12-31T01:32:12.410Z,10.93
2022-12-31T01:34:39.394Z,10.32
2022-12-31T01:37:06.253Z,10.27
2022-12-31T01:39:33.161Z,10.37
2022-12-31T01:41:59.860Z,10.35
2022-12-31T01:44:27.994Z,10.80
2022-12-31T01:46:58.832Z,9.90
2022-12-31T01:49:31.003Z,9.77
2022-12-31T01:52:05.712Z,10.40
2022-12-31T01:54:43.005Z,10.40
2022-12-31T01:57:12.887Z,9.80
2022-12-31T01:59:41.164Z,10.10
2022-12-31T02:02:09.994Z,9.98
2022-12-31T02:04:38.522Z,10.27
2022-12-31T02:07:07.847Z,10.60
2022-12-31T02:09:40.058Z,10.05
2022-12-31T02:12:09.357Z,9.60
2022-12-31T02:14:50.952Z,10.20
2022-12-31T02:17:31.263Z,10.27
2022-12-31T02:20:22.614Z,10.10
2022-12-31T02:23:36.571Z,10.40
2022-12-31T02:26:35.626Z,9.68
2022-12-31T02:29:16.778Z,9.80
2022-12-31T02:32:12.649Z,10.17
2022-12-31T02:35:09.389Z,10.10
2022-12-31T02:37:39.935Z,9.98
2022-12-31T02:40:12.076Z,11.02
2022-12-31T02:42:43.090Z,10.63
2022-12-31T02:45:15.228Z,10.17
2022-12-31T02:48:19.939Z,10.50
2022-12-31T02:51:30.067Z,10.63
2022-12-31T02:53:58.969Z,10.20
2022-12-31T02:56:58.320Z,9.75
2022-12-31T02:59:28.269Z,9.97
2022-12-31T03:02:11.863Z,9.48
2022-12-31T03:04:41.567Z,10.23
2022-12-31T03:07:11.667Z,9.73
2022-12-31T03:09:39.074Z,10.02
2022-12-31T03:12:08.990Z,9.70
2022-12-31T03:14:36.912Z,9.80
2022-12-31T03:17:05.594Z,10.48
2022-12-31T03:19:32.919Z,10.63
2022-12-31T03:21:59.651Z,10.40
2022-12-31T03:24:26.939Z,10.50
2022-12-31T03:26:53.673Z,10.45
2022-12-31T03:29:22.034Z,9.63
2022-12-31T03:31:49.535Z,10.93
2022-12-31T03:34:16.271Z,10.40
2022-12-31T03:36:43.521Z,9.53
2022-12-31T03:39:10.403Z,9.23
2022-12-31T03:41:37.132Z,9.43
2022-12-31T03:44:05.994Z,9.27
2022-12-31T03:46:32.688Z,9.13
2022-12-31T03:48:59.525Z,9.30
2022-12-31T03:51:26.623Z,9.90
2022-12-31T03:53:53.499Z,9.95
2022-12-31T03:56:20.357Z,9.75
2022-12-31T03:58:48.020Z,9.05
2022-12-31T04:01:15.544Z,9.20
2022-12-31T04:03:44.038Z,10.82
2022-12-31T04:06:11.483Z,10.13
2022-12-31T04:08:42.017Z,10.05
2022-12-31T04:11:09.635Z,10.10
2022-12-31T04:13:37.945Z,9.33
2022-12-31T04:16:05.789Z,10.32
2022-12-31T04:18:32.980Z,9.05
2022-12-31T04:21:04.144Z,9.73
2022-12-31T04:23:32.060Z,9.63
2022-12-31T04:25:58.941Z,10.47
2022-12-31T04:28:26.467Z,10.43
2022-12-31T04:30:53.319Z,9.38
2022-12-31T04:33:20.236Z,10.18
2022-12-31T04:35:47.123Z,9.50
2022-12-31T04:38:14.208Z,8.93
2022-12-31T04:40:40.987Z,9.45
2022-12-31T04:43:09.310Z,10.27
2022-12-31T04:45:36.261Z,9.05
2022-12-31T04:48:03.633Z,9.30
2022-12-31T04:50:36.027Z,9.50
2022-12-31T04:53:02.881Z,9.20
2022-12-31T04:55:29.612Z,8.82
2022-12-31T04:57:58.245Z,9.20
2022-12-31T05:00:25.023Z,9.10
2022-12-31T05:02:55.476Z,8.83
2022-12-31T05:05:22.526Z,8.60
2022-12-31T05:07:49.261Z,8.93
2022-12-31T05:10:19.571Z,9.20
2022-12-31T05:13:12.106Z,8.63
2022-12-31T05:15:42.105Z,9.00
2022-12-31T05:18:08.980Z,9.25
2022-12-31T05:21:01.922Z,9.18
2022-12-31T05:23:29.821Z,8.88
2022-12-31T05:25:56.756Z,9.25
2022-12-31T05:28:28.068Z,9.30
2022-12-31T05:30:58.558Z,8.80
2022-12-31T05:33:25.306Z,9.30
2022-12-31T05:35:52.943Z,9.20
2022-12-31T05:38:19.643Z,8.88
2022-12-31T05:40:47.536Z,9.40
2022-12-31T05:43:15.054Z,9.13
2022-12-31T05:45:42.437Z,9.45
2022-12-31T05:48:15.936Z,9.05
2022-12-31T05:50:43.453Z,8.38
2022-12-31T05:53:10.348Z,8.73
2022-12-31T05:55:37.471Z,8.93
2022-12-31T05:58:06.983Z,9.15
2022-12-31T06:00:34.425Z,8.85
2022-12-31T06:03:01.388Z,8.50
2022-12-31T06:05:28.439Z,8.90
2022-12-31T06:07:59.067Z,9.73
2022-12-31T06:10:27.489Z,9.30
2022-12-31T06:12:54.319Z,9.20
2022-12-31T06:15:21.428Z,8.90
2022-12-31T06:17:49.137Z,8.70
2022-12-31T06:20:15.882Z,9.60
2022-12-31T06:22:43.473Z,9.20
2022-12-31T06:25:11.159Z,9.68
2022-12-31T06:27:38.060Z,8.88
2022-12-31T06:30:05.383Z,9.50
2022-12-31T06:32:32.472Z,9.30
2022-12-31T06:35:23.994Z,8.95
2022-12-31T06:40:46.033Z,9.50
2022-12-31T06:43:13.414Z,8.77
2022-12-31T06:45:40.645Z,8.85
2022-12-31T06:48:07.752Z,8.63
2022-12-31T06:50:34.943Z,9.23
2022-12-31T06:53:01.772Z,9.02
2022-12-31T06:55:28.966Z,8.97
2022-12-31T06:57:56.276Z,9.63
2022-12-31T07:00:23.741Z,9.60
2022-12-31T07:06:23.937Z,8.90
2022-12-31T07:08:59.665Z,9.20
2022-12-31T07:11:36.987Z,8.80
2022-12-31T07:14:13.393Z,9.13
2022-12-31T07:17:05.680Z,9.10
2022-12-31T07:19:57.818Z,8.30
2022-12-31T07:22:26.050Z,8.60
2022-12-31T07:24:53.126Z,8.98
2022-12-31T07:27:28.968Z,8.80
2022-12-31T07:29:58.435Z,8.70
2022-12-31T07:32:25.517Z,8.85
2022-12-31T07:35:12.788Z,9.03
2022-12-31T07:37:57.603Z,8.68
2022-12-31T07:40:36.000Z,8.43
2022-12-31T07:43:26.600Z,9.00
2022-12-31T07:46:12.984Z,9.18
2022-12-31T07:49:10.091Z,8.70
2022-12-31T07:51:39.943Z,9.50
2022-12-31T07:54:11.948Z,9.40
2022-12-31T07:56:46.987Z,8.73
2022-12-31T07:59:47.867Z,9.00
2022-12-31T08:06:12.063Z,9.00
2022-12-31T08:08:58.801Z,8.82
2022-12-31T08:11:55.043Z,9.48
2022-12-31T08:14:24.223Z,9.48
2022-12-31T08:16:51.346Z,10.57
2022-12-31T08:19:26.144Z,11.15
2022-12-31T08:22:26.474Z,9.75
2022-12-31T08:25:08.046Z,9.75
2022-12-31T08:28:09.108Z,9.15
2022-12-31T08:31:04.917Z,9.63
2022-12-31T08:33:43.745Z,8.80
2022-12-31T08:36:45.008Z,9.10
2022-12-31T08:39:55.947Z,9.55
2022-12-31T08:43:15.963Z,9.20
2022-12-31T08:45:49.721Z,8.50
2022-12-31T08:48:33.031Z,8.90
2022-12-31T08:51:03.648Z,8.68
2022-12-31T08:53:33.721Z,9.00
2022-12-31T08:56:34.799Z,9.10
2022-12-31T08:59:17.976Z,9.87
2022-12-31T09:01:54.615Z,8.65
2022-12-31T09:04:46.391Z,8.45
2022-12-31T09:07:22.034Z,8.60
2022-12-31T09:10:32.544Z,8.65
2022-12-31T09:13:35.943Z,9.73
2022-12-31T09:16:16.373Z,9.05
2022-12-31T09:18:43.892Z,8.32
2022-12-31T09:21:16.013Z,9.70
2022-12-31T09:23:43.663Z,8.93
2022-12-31T09:26:52.036Z,9.20
2022-12-31T09:29:55.123Z,8.40
2022-12-31T09:33:01.370Z,8.95
2022-12-31T09:35:52.603Z,9.02
2022-12-31T09:38:28.958Z,9.43
2022-12-31T09:41:12.964Z,9.20
2022-12-31T09:44:18.927Z,9.55
2022-12-31T09:47:18.726Z,9.70
2022-12-31T09:53:28.044Z,9.90
2022-12-31T09:56:13.020Z,9.57
2022-12-31T09:58:58.391Z,9.50
2022-12-31T10:01:53.443Z,9.27
2022-12-31T10:08:07.441Z,10.18
2022-12-31T10:10:55.999Z,9.27
2022-12-31T10:13:27.174Z,10.25
2022-12-31T10:16:02.471Z,9.75
2022-12-31T10:18:53.803Z,10.07
2022-12-31T10:21:37.043Z,10.40
2022-12-31T10:24:13.333Z,10.37
2022-12-31T10:26:53.535Z,9.85
2022-12-31T10:29:25.637Z,9.95
2022-12-31T10:32:31.178Z,9.90
2022-12-31T10:35:28.386Z,10.75
2022-12-31T10:38:16.082Z,10.27
2022-12-31T10:41:13.388Z,10.57
2022-12-31T10:44:01.944Z,9.77
2022-12-31T10:47:08.325Z,10.30
2022-12-31T10:53:14.895Z,10.33
2022-12-31T10:55:54.274Z,9.82
2022-12-31T10:58:36.674Z,10.15
2022-12-31T11:01:17.167Z,10.15
2022-12-31T11:04:30.133Z,10.43
2022-12-31T11:07:45.504Z,10.23
2022-12-31T11:10:18.961Z,11.30
2022-12-31T11:13:24.050Z,11.20
2022-12-31T11:16:19.301Z,10.35
2022-12-31T11:19:21.523Z,10.75
2022-12-31T11:22:10.986Z,11.43
2022-12-31T11:24:56.344Z,10.88
2022-12-31T11:31:14.981Z,11.43
2022-12-31T11:34:15.255Z,11.38
2022-12-31T11:37:10.874Z,10.97
2022-12-31T11:39:46.605Z,11.32
2022-12-31T11:42:40.874Z,11.50
2022-12-31T11:45:11.203Z,11.20
2022-12-31T11:51:01.979Z,10.77
2022-12-31T11:53:50.047Z,11.50
2022-12-31T11:56:19.697Z,10.55
2022-12-31T11:58:50.916Z,11.00
2022-12-31T12:01:24.725Z,11.10
2022-12-31T12:03:54.001Z,11.07
2022-12-31T12:06:27.385Z,11.70
2022-12-31T12:09:00.950Z,11.18
2022-12-31T12:11:32.945Z,11.20
2022-12-31T12:14:02.979Z,10.73
2022-12-31T12:16:29.953Z,11.00
2022-12-31T12:19:06.970Z,11.35
2022-12-31T12:21:34.594Z,10.75
2022-12-31T12:24:30.891Z,11.18
2022-12-31T12:26:58.158Z,10.43
2022-12-31T12:29:32.972Z,11.90
2022-12-31T12:32:02.202Z,11.98
2022-12-31T12:34:37.955Z,11.40
2022-12-31T12:37:25.792Z,11.90
2022-12-31T12:39:58.995Z,10.45
2022-12-31T12:42:26.823Z,11.37
2022-12-31T12:45:05.266Z,11.55
2022-12-31T12:47:33.544Z,10.75
2022-12-31T12:50:01.114Z,11.07
2022-12-31T12:52:41.845Z,10.80
2022-12-31T12:55:20.815Z,10.70
2022-12-31T12:58:00.175Z,10.70
2022-12-31T13:00:46.013Z,10.48
2022-12-31T13:03:16.277Z,11.27
2022-12-31T13:06:02.921Z,11.05
2022-12-31T13:09:00.436Z,11.00
2022-12-31T13:11:41.092Z,11.15
2022-12-31T13:14:25.955Z,10.52
2022-12-31T13:17:31.912Z,10.27
2022-12-31T13:20:08.934Z,10.32
2022-12-31T13:23:08.892Z,10.67
2022-12-31T13:26:00.579Z,10.80
2022-12-31T13:28:28.973Z,11.25
2022-12-31T13:31:06.542Z,10.98
2022-12-31T13:33:42.910Z,11.15
2022-12-31T13:36:21.234Z,11.33
2022-12-31T13:42:28.950Z,12.45
2022-12-31T13:45:04.166Z,11.23
2022-12-31T13:47:44.872Z,12.00
2022-12-31T13:50:19.595Z,11.77
2022-12-31T13:52:51.926Z,12.15
2022-12-31T13:55:19.455Z,13.15
2022-12-31T13:57:52.792Z,12.02
2022-12-31T14:00:19.566Z,12.15
2022-12-31T14:02:53.111Z,11.70
2022-12-31T14:05:31.445Z,12.50
2022-12-31T14:10:53.447Z,11.93
2022-12-31T14:13:40.999Z,12.20
2022-12-31T14:16:38.329Z,12.00
2022-12-31T14:19:13.900Z,12.40
2022-12-31T14:21:52.770Z,12.25
2022-12-31T14:24:44.142Z,11.13
2022-12-31T14:30:21.281Z,11.63
2022-12-31T14:33:26.113Z,12.10
2022-12-31T14:39:18.981Z,13.23
2022-12-31T14:42:16.202Z,11.95
2022-12-31T14:45:17.014Z,11.77
2022-12-31T14:48:22.280Z,11.95
2022-12-31T14:50:51.577Z,11.45
2022-12-31T14:53:24.399Z,10.63
2022-12-31T14:56:30.224Z,11.48
2022-12-31T14:59:00.800Z,11.00
2022-12-31T15:01:29.059Z,11.18
2022-12-31T15:03:57.741Z,12.07
2022-12-31T15:06:45.929Z,11.15
2022-12-31T15:09:50.594Z,11.10
2022-12-31T15:16:11.947Z,11.23
2022-12-31T15:18:48.245Z,11.65
2022-12-31T15:21:27.992Z,12.07
2022-12-31T15:24:00.902Z,11.55
2022-12-31T15:26:32.334Z,11.03
2022-12-31T15:29:39.450Z,11.55
2022-12-31T15:32:18.703Z,12.32
2022-12-31T15:34:46.814Z,12.05
2022-12-31T15:37:35.952Z,11.88
2022-12-31T15:40:19.593Z,12.10
2022-12-31T15:43:33.031Z,11.70
2022-12-31T15:46:02.049Z,11.18
2022-12-31T15:48:43.236Z,24.85
2022-12-31T15:51:33.304Z,23.10
2022-12-31T15:54:03.093Z,28.67
2022-12-31T15:56:41.237Z,19.95
2022-12-31T15:59:15.933Z,17.77
2022-12-31T16:01:44.894Z,16.65
2022-12-31T16:04:18.015Z,14.95
2022-12-31T16:06:50.617Z,14.43
2022-12-31T16:09:25.882Z,14.32
2022-12-31T16:11:55.288Z,14.25
2022-12-31T16:14:46.418Z,14.65
2022-12-31T16:17:30.053Z,14.80
2022-12-31T16:19:58.012Z,15.33
2022-12-31T16:22:26.569Z,15.88
2022-12-31T16:27:46.326Z,14.65
2022-12-31T16:30:23.040Z,14.35
2022-12-31T16:32:51.131Z,14.50
2022-12-31T16:35:28.091Z,15.13
2022-12-31T16:38:13.483Z,16.65
2022-12-31T16:40:43.425Z,18.58
2022-12-31T16:43:29.033Z,21.65
2022-12-31T16:46:11.958Z,24.13
2022-12-31T16:48:39.572Z,22.55
2022-12-31T16:51:07.316Z,22.90
2022-12-31T16:53:37.938Z,20.83
2022-12-31T16:56:09.900Z,20.38
2022-12-31T16:58:44.178Z,18.87
2022-12-31T17:01:26.184Z,19.60
2022-12-31T17:04:09.727Z,20.00
2022-12-31T17:07:30.246Z,20.42
2022-12-31T17:10:07.242Z,20.33
2022-12-31T17:13:24.968Z,20.33
2022-12-31T17:15:56.628Z,20.00
2022-12-31T17:18:30.899Z,20.20
2022-12-31T17:21:11.174Z,19.63
2022-12-31T17:23:40.931Z,19.00
2022-12-31T17:26:13.650Z,19.10
2022-12-31T17:28:57.182Z,18.83
2022-12-31T17:31:36.617Z,19.48
2022-12-31T17:34:14.003Z,19.38
2022-12-31T17:37:02.720Z,20.15
2022-12-31T17:40:24.557Z,21.87
2022-12-31T17:42:49.327Z,24.13
2022-12-31T17:45:22.010Z,25.20
2022-12-31T17:47:51.568Z,25.42
2022-12-31T17:50:19.822Z,25.42
2022-12-31T17:52:47.660Z,26.17
2022-12-31T17:55:16.238Z,25.98
2022-12-31T17:57:52.731Z,23.40
2022-12-31T18:00:25.006Z,21.83
2022-12-31T18:02:53.469Z,20.33
2022-12-31T18:05:22.953Z,20.17
2022-12-31T18:07:50.867Z,18.92
2022-12-31T18:10:22.682Z,18.50
2022-12-31T18:12:49.937Z,19.10
2022-12-31T18:15:23.075Z,20.25
2022-12-31T18:17:51.361Z,20.37
2022-12-31T18:20:18.699Z,19.30
2022-12-31T18:28:08.828Z,19.30
2022-12-31T18:31:00.868Z,18.23
2022-12-31T18:33:27.851Z,18.60
2022-12-31T18:36:08.882Z,19.13
2022-12-31T18:38:36.867Z,19.58
2022-12-31T18:41:04.438Z,25.98
2022-12-31T18:43:34.358Z,22.90
2022-12-31T18:46:01.160Z,21.40
2022-12-31T18:48:29.993Z,23.15
2022-12-31T18:50:56.793Z,27.63
2022-12-31T18:53:24.312Z,26.20
2022-12-31T18:55:57.163Z,25.63
2022-12-31T18:58:24.715Z,28.38
2022-12-31T19:00:52.951Z,30.88
2022-12-31T19:03:23.821Z,31.85
2022-12-31T19:05:52.275Z,32.85
2022-12-31T19:08:23.874Z,45.37
2022-12-31T19:10:52.206Z,44.35
2022-12-31T19:13:20.822Z,40.35
2022-12-31T19:15:50.990Z,37.20
2022-12-31T19:18:18.130Z,37.67
2022-12-31T19:20:45.851Z,36.87
2022-12-31T19:23:15.474Z,38.47
2022-12-31T19:25:47.963Z,37.70
2022-12-31T19:28:18.548Z,41.15
2022-12-31T19:30:45.769Z,40.65
2022-12-31T19:33:13.981Z,40.77
2022-12-31T19:35:41.749Z,38.90
2022-12-31T19:38:27.845Z,38.28
2022-12-31T19:40:55.630Z,38.15
2022-12-31T19:43:24.071Z,38.05
2022-12-31T19:45:51.946Z,40.23
2022-12-31T19:48:47.013Z,39.28
2022-12-31T19:51:19.801Z,39.25
2022-12-31T19:53:49.019Z,44.70
2022-12-31T19:56:19.611Z,41.63
2022-12-31T19:58:47.923Z,41.27
2022-12-31T20:01:23.025Z,48.53
2022-12-31T20:03:50.618Z,46.78
2022-12-31T20:06:22.898Z,45.05
2022-12-31T20:08:49.724Z,43.75
2022-12-31T20:11:21.932Z,42.77
2022-12-31T20:13:51.628Z,68.80
2022-12-31T20:16:20.950Z,53.53
2022-12-31T20:18:49.410Z,47.03
2022-12-31T20:21:41.898Z,42.63
2022-12-31T20:24:12.375Z,42.60
2022-12-31T20:26:40.434Z,42.00
2022-12-31T20:29:07.255Z,43.72
2022-12-31T20:31:59.231Z,43.55
2022-12-31T20:34:26.147Z,41.67
2022-12-31T20:36:53.488Z,41.03
2022-12-31T20:39:20.903Z,38.72
2022-12-31T20:41:49.936Z,40.70
2022-12-31T20:44:21.896Z,41.92
2022-12-31T20:46:49.511Z,40.50
2022-12-31T20:49:26.968Z,41.53
2022-12-31T20:52:04.547Z,44.63
2022-12-31T20:54:34.147Z,52.47
2022-12-31T20:57:01.087Z,60.58
2022-12-31T20:59:27.983Z,57.03
2022-12-31T21:04:46.407Z,50.90
2022-12-31T21:07:15.382Z,49.60
2022-12-31T21:09:42.144Z,52.00
2022-12-31T21:12:11.621Z,59.42
2022-12-31T21:14:44.814Z,52.60
2022-12-31T21:17:12.244Z,48.95
2022-12-31T21:19:39.551Z,46.20
2022-12-31T21:22:06.445Z,46.33
2022-12-31T21:24:34.227Z,46.55
2022-12-31T21:27:02.483Z,44.30
2022-12-31T21:29:34.370Z,43.28
2022-12-31T21:32:01.777Z,42.00
2022-12-31T21:34:28.580Z,43.17
2022-12-31T21:36:55.810Z,42.88
2022-12-31T21:39:23.142Z,43.97
2022-12-31T21:41:49.997Z,42.55
2022-12-31T21:44:18.940Z,43.92
2022-12-31T21:47:24.777Z,41.40
2022-12-31T21:49:37.559Z,40.22
2022-12-31T21:52:05.689Z,43.20
2022-12-31T21:54:32.943Z,50.00
2022-12-31T21:57:00.399Z,46.70
2022-12-31T21:59:31.311Z,46.20
2022-12-31T22:02:00.305Z,47.25
2022-12-31T22:05:00.773Z,45.07
2022-12-31T22:07:16.130Z,43.47
2022-12-31T22:09:42.944Z,43.13
2022-12-31T22:12:09.813Z,46.20
2022-12-31T22:14:38.952Z,44.47
2022-12-31T22:17:07.392Z,45.83
2022-12-31T22:19:54.690Z,43.38
2022-12-31T22:22:24.981Z,43.13
2022-12-31T22:24:52.017Z,43.35
2022-12-31T22:28:04.416Z,51.80
2022-12-31T22:30:34.738Z,52.67
2022-12-31T22:33:02.005Z,49.78
2022-12-31T22:35:29.026Z,49.95
2022-12-31T22:37:59.021Z,48.30
2022-12-31T22:40:27.311Z,47.50
2022-12-31T22:42:55.312Z,43.63
2022-12-31T22:45:22.464Z,43.85
2022-12-31T22:47:49.464Z,46.40
2022-12-31T22:50:16.503Z,46.90
2022-12-31T22:52:44.028Z,44.17
2022-12-31T22:55:10.812Z,43.27
2022-12-31T22:57:41.985Z,44.25
2022-12-31T23:00:13.183Z,43.85
2022-12-31T23:02:42.113Z,43.15
2022-12-31T23:05:15.368Z,40.60
2022-12-31T23:08:18.643Z,40.07
2022-12-31T23:10:52.453Z,35.25
2022-12-31T23:13:21.319Z,31.33
2022-12-31T23:15:48.158Z,33.33
2022-12-31T23:18:15.294Z,34.17
2022-12-31T23:20:42.127Z,35.17
2022-12-31T23:23:17.320Z,33.40
2022-12-31T23:25:50.093Z,35.55
2022-12-31T23:31:19.110Z,64.93
2022-12-31T23:33:45.897Z,67.30
2022-12-31T23:36:13.963Z,71.65
2022-12-31T23:38:40.848Z,68.63
2022-12-31T23:44:06.958Z,82.65
2022-12-31T23:46:33.756Z,104.23
2022-12-31T23:49:02.918Z,97.97
2022-12-31T23:51:29.961Z,125.13
2022-12-31T23:53:56.828Z,122.50
2022-12-31T23:56:24.213Z,135.65
2022-12-31T23:58:58.042Z,134.03
